Angelica, New York
Current Conditions -  °F | °C
As of 5:14 AM on Friday 19 Dec 2014 (Local Time) from KELZ Reporting Station
Overcast Overcast  
Wind Chill: -11°   Ceiling: 900
Heat Index: -4°   Visibility: 10mi
Dew Point: -7°   Wind: 12mph
Humidity: 84%   Direction: 300°WNW
Pressure: 30"   Gusts: NA
Location:  42.31°N, 78.02°W
Report Text: KELZ 191014Z AUTO 30010KT 10SM OVC009 M04/M07 A3000 RMK AO2 T10441067
Loading
Personal Weather Stations






























Interactive Weather Map New forecast layout! Learn more

10-Day Weather Forecast

Advertisements
Track Severe Weather on mobile